Terminal Aerodrome Forecast
Issued by NWS

Home | Current Version | Previous Version | Graphics & Text | Print | Product List | Glossary On
Versions: 1 2 3 4 5 6 7 8 9 10 11 12 13 14 15 16 17 18 19 20
000
FTUS43 KMPX 190800 AAA
TAFAXN
TAF AMD
KAXN 190857Z 1909/2006 29005KT 6SM BR SCT005 SCT200
      TEMPO 1909/1912 BKN005
     FM191400 32007KT P6SM SCT200=

USA.gov is the U.S. government's official web portal to all federal, state and local government web resources and services.